Time;durP1;ratioP1;P1;durP2;ratioP2;P2;SDS_P1;SDS_P2;PMS_P1;PMS_P2;Temp;Humidity;BMP_temperature;BMP_pressure;BME280_temperature;BME280_humidity;BME280_pressure;Samples;Min_cycle;Max_cycle;Signal;HPM_P1;HPM_P2
2022/03/01 00:00:01;;;;;;;18.83;8.20;;;;;;;;;;5056302;28;20392;-76
2022/03/01 00:02:27;;;;;;;16.75;7.10;;;;;;;;;;5056067;28;20445;-77
2022/03/01 00:04:53;;;;;;;15.68;7.35;;;;;;;;;;5055946;28;20167;-74
2022/03/01 00:07:19;;;;;;;17.80;7.78;;;;;;;;;;5056008;28;20040;-75
2022/03/01 00:09:45;;;;;;;17.23;8.07;;;;;;;;;;5072755;28;20069;-74
2022/03/01 00:12:11;;;;;;;15.80;7.63;;;;;;;;;;5072379;28;20056;-75
2022/03/01 00:14:38;;;;;;;18.73;7.57;;;;;;;;;;5055511;28;20032;-75
2022/03/01 00:17:04;;;;;;;17.85;7.25;;;;;;;;;;5072070;28;20040;-76
2022/03/01 00:19:30;;;;;;;13.43;7.45;;;;;;;;;;5072252;28;20071;-74
2022/03/01 00:21:56;;;;;;;19.00;8.45;;;;;;;;;;5055694;28;20484;-75
2022/03/01 00:24:22;;;;;;;17.10;7.60;;;;;;;;;;5072224;28;20074;-76
2022/03/01 00:26:48;;;;;;;13.40;6.97;;;;;;;;;;5055847;28;20440;-75
2022/03/01 00:29:15;;;;;;;21.27;9.38;;;;;;;;;;5072512;28;20037;-73
2022/03/01 00:31:41;;;;;;;16.30;7.65;;;;;;;;;;5055131;28;20067;-74
2022/03/01 00:34:06;;;;;;;17.85;8.73;;;;;;;;;;5054926;28;20044;-74
2022/03/01 00:36:33;;;;;;;18.10;7.72;;;;;;;;;;5054671;28;20083;-75
2022/03/01 00:38:59;;;;;;;14.05;7.22;;;;;;;;;;5055045;28;20037;-75
2022/03/01 00:41:25;;;;;;;16.88;7.43;;;;;;;;;;5054600;28;20394;-75
2022/03/01 00:43:51;;;;;;;17.85;9.13;;;;;;;;;;5054435;28;20044;-75
2022/03/01 00:46:17;;;;;;;17.58;8.73;;;;;;;;;;5071075;28;20529;-74
2022/03/01 00:48:43;;;;;;;16.98;7.95;;;;;;;;;;5054987;28;20048;-78
2022/03/01 00:51:09;;;;;;;17.13;8.32;;;;;;;;;;5054743;28;20044;-74
2022/03/01 00:53:35;;;;;;;21.90;9.23;;;;;;;;;;5071346;28;20062;-75
2022/03/01 00:56:04;;;;;;;17.52;8.00;;;;;;;;;;5071385;28;20036;-76
2022/03/01 00:58:30;;;;;;;16.63;7.07;;;;;;;;;;5071399;28;20117;-75
2022/03/01 01:00:56;;;;;;;17.05;8.60;;;;;;;;;;5054184;28;20042;-74
2022/03/01 01:03:22;;;;;;;16.27;7.60;;;;;;;;;;5071384;28;20040;-75
2022/03/01 01:05:48;;;;;;;20.02;8.85;;;;;;;;;;5071264;28;20048;-74
2022/03/01 01:08:14;;;;;;;17.83;8.35;;;;;;;;;;5070883;28;20062;-74
2022/03/01 01:10:41;;;;;;;12.73;6.85;;;;;;;;;;5054308;28;20053;-75
2022/03/01 01:13:07;;;;;;;16.52;7.60;;;;;;;;;;5070882;28;20048;-75
2022/03/01 01:15:33;;;;;;;16.88;8.70;;;;;;;;;;5070781;28;20132;-74
2022/03/01 01:17:59;;;;;;;15.65;8.85;;;;;;;;;;5070639;28;20094;-73
2022/03/01 01:20:25;;;;;;;16.65;7.45;;;;;;;;;;5054000;28;20036;-76
2022/03/01 01:22:52;;;;;;;17.25;8.65;;;;;;;;;;5054378;28;20356;-76
2022/03/01 01:25:25;;;;;;;18.02;8.82;;;;;;;;;;5070991;28;20048;-74
2022/03/01 01:27:52;;;;;;;17.67;8.52;;;;;;;;;;5070680;28;20036;-74
2022/03/01 01:30:20;;;;;;;18.85;8.43;;;;;;;;;;5070562;28;20072;-75
2022/03/01 01:32:49;;;;;;;18.23;8.40;;;;;;;;;;5070471;28;20067;-76
2022/03/01 01:35:16;;;;;;;20.50;8.75;;;;;;;;;;5053342;28;20040;-75
2022/03/01 01:37:43;;;;;;;18.38;9.05;;;;;;;;;;5070722;28;20040;-76
2022/03/01 01:40:12;;;;;;;21.58;8.23;;;;;;;;;;5070456;28;20041;-74
2022/03/01 01:42:38;;;;;;;19.33;9.32;;;;;;;;;;5070386;28;20514;-74
2022/03/01 01:45:05;;;;;;;18.35;8.27;;;;;;;;;;5053796;28;20124;-76
2022/03/01 01:47:31;;;;;;;17.75;8.10;;;;;;;;;;5070340;28;20123;-75
2022/03/01 01:49:57;;;;;;;15.32;9.00;;;;;;;;;;5053752;28;20488;-76
2022/03/01 01:52:24;;;;;;;17.55;8.10;;;;;;;;;;5053536;28;20044;-75
2022/03/01 01:54:50;;;;;;;18.60;8.32;;;;;;;;;;5053619;28;20067;-75
2022/03/01 01:57:17;;;;;;;24.35;9.95;;;;;;;;;;5053640;28;20037;-77
2022/03/01 01:59:44;;;;;;;21.08;9.57;;;;;;;;;;5070052;28;20033;-76
2022/03/01 02:02:10;;;;;;;20.50;8.65;;;;;;;;;;5070076;28;20049;-76
2022/03/01 02:04:36;;;;;;;16.65;7.78;;;;;;;;;;5069738;28;20586;-73
2022/03/01 02:07:02;;;;;;;16.17;7.57;;;;;;;;;;5053756;28;20048;-75
2022/03/01 02:09:28;;;;;;;22.52;10.88;;;;;;;;;;5070143;28;20056;-75
2022/03/01 02:11:54;;;;;;;16.15;7.93;;;;;;;;;;5053274;28;20056;-75
2022/03/01 02:14:20;;;;;;;17.50;8.45;;;;;;;;;;5053809;28;20041;-76
2022/03/01 02:16:46;;;;;;;21.48;9.32;;;;;;;;;;5053623;28;20051;-76
2022/03/01 02:19:13;;;;;;;17.90;8.10;;;;;;;;;;5070316;28;20083;-75
2022/03/01 02:21:49;;;;;;;17.33;8.77;;;;;;;;;;5070351;28;20488;-74
2022/03/01 02:24:16;;;;;;;21.02;9.55;;;;;;;;;;5069964;28;20052;-76
2022/03/01 02:26:42;;;;;;;21.83;9.23;;;;;;;;;;5070176;28;20048;-75
2022/03/01 02:29:08;;;;;;;18.90;7.78;;;;;;;;;;5069873;28;20559;-76
2022/03/01 02:31:34;;;;;;;17.02;8.77;;;;;;;;;;5069868;28;20389;-75
2022/03/01 02:34:00;;;;;;;25.48;9.82;;;;;;;;;;5069838;28;20040;-75
2022/03/01 02:36:26;;;;;;;22.00;10.07;;;;;;;;;;5070187;28;20499;-75
2022/03/01 02:38:53;;;;;;;17.77;8.63;;;;;;;;;;5053322;28;20040;-76
2022/03/01 02:41:19;;;;;;;23.85;10.15;;;;;;;;;;5069623;28;20071;-75
2022/03/01 02:43:45;;;;;;;17.67;9.02;;;;;;;;;;5053127;28;20054;-76
2022/03/01 02:46:11;;;;;;;23.10;10.40;;;;;;;;;;5054852;28;20040;-74
2022/03/01 02:48:37;;;;;;;19.42;9.85;;;;;;;;;;5057234;28;20036;-76
2022/03/01 02:51:03;;;;;;;22.27;9.65;;;;;;;;;;5073733;28;20036;-76
2022/03/01 02:53:29;;;;;;;22.00;9.68;;;;;;;;;;5056812;28;20033;-76
2022/03/01 02:55:55;;;;;;;18.83;9.15;;;;;;;;;;5073456;28;20036;-76
2022/03/01 02:58:21;;;;;;;23.88;11.20;;;;;;;;;;5073414;28;20387;-76
2022/03/01 03:00:48;;;;;;;24.30;10.82;;;;;;;;;;5056945;28;20079;-76
2022/03/01 03:03:14;;;;;;;21.95;10.25;;;;;;;;;;5073253;28;20047;-74
2022/03/01 03:05:40;;;;;;;18.75;9.73;;;;;;;;;;5056700;28;20507;-74
2022/03/01 03:08:07;;;;;;;20.00;9.32;;;;;;;;;;5073018;28;20088;-76
2022/03/01 03:10:33;;;;;;;26.48;10.40;;;;;;;;;;5056610;28;20032;-76
2022/03/01 03:12:59;;;;;;;20.25;10.73;;;;;;;;;;5056720;28;20484;-76
2022/03/01 03:15:27;;;;;;;25.00;10.60;;;;;;;;;;5056403;28;20040;-76
2022/03/01 03:17:53;;;;;;;21.85;10.07;;;;;;;;;;5073245;28;20055;-76
2022/03/01 03:20:19;;;;;;;19.52;10.18;;;;;;;;;;5056549;28;20127;-76
2022/03/01 03:22:45;;;;;;;22.23;9.70;;;;;;;;;;5056307;28;20089;-77
2022/03/01 03:25:11;;;;;;;21.33;9.55;;;;;;;;;;5072916;28;20476;-76
2022/03/01 03:27:37;;;;;;;22.38;9.43;;;;;;;;;;5056193;28;20041;-76
2022/03/01 03:30:03;;;;;;;28.60;12.68;;;;;;;;;;5056512;28;20181;-76
2022/03/01 03:32:30;;;;;;;20.67;9.45;;;;;;;;;;5055997;28;20052;-76
2022/03/01 03:34:56;;;;;;;18.52;8.77;;;;;;;;;;5072748;28;20037;-77
2022/03/01 03:37:22;;;;;;;21.48;10.27;;;;;;;;;;5072596;28;20543;-76
2022/03/01 03:39:48;;;;;;;24.25;9.93;;;;;;;;;;5072589;28;20033;-75
2022/03/01 03:42:14;;;;;;;23.83;11.50;;;;;;;;;;5072830;28;20040;-77
2022/03/01 03:44:40;;;;;;;21.85;9.20;;;;;;;;;;5056089;28;20051;-75
2022/03/01 03:47:07;;;;;;;23.27;9.63;;;;;;;;;;5072571;28;20400;-75
2022/03/01 03:49:32;;;;;;;22.00;9.85;;;;;;;;;;5072804;28;20041;-76
2022/03/01 03:51:59;;;;;;;23.23;10.48;;;;;;;;;;5072453;28;20412;-74
2022/03/01 03:54:25;;;;;;;30.85;11.50;;;;;;;;;;5055729;28;20609;-74
2022/03/01 03:56:51;;;;;;;24.85;10.90;;;;;;;;;;5055435;28;20036;-76
2022/03/01 03:59:17;;;;;;;25.70;10.80;;;;;;;;;;5055955;28;20028;-76
2022/03/01 04:01:44;;;;;;;23.50;11.30;;;;;;;;;;5055871;28;20058;-76
2022/03/01 04:04:10;;;;;;;26.50;11.48;;;;;;;;;;5072169;28;20075;-77
2022/03/01 04:06:36;;;;;;;19.55;9.00;;;;;;;;;;5055752;28;20090;-75
2022/03/01 04:09:03;;;;;;;20.63;10.10;;;;;;;;;;5055330;28;20500;-75
2022/03/01 04:11:29;;;;;;;23.23;11.68;;;;;;;;;;5071859;28;20037;-74
2022/03/01 04:13:55;;;;;;;23.33;11.27;;;;;;;;;;5055553;28;20044;-75
2022/03/01 04:16:21;;;;;;;24.23;10.85;;;;;;;;;;5055682;28;20509;-74
2022/03/01 04:18:47;;;;;;;16.70;9.00;;;;;;;;;;5072068;28;20389;-75
2022/03/01 04:21:14;;;;;;;23.38;10.68;;;;;;;;;;5071924;28;20048;-75
2022/03/01 04:23:40;;;;;;;20.48;9.38;;;;;;;;;;5055272;28;20040;-75
2022/03/01 04:26:06;;;;;;;26.42;10.70;;;;;;;;;;5055170;28;20131;-74
2022/03/01 04:28:33;;;;;;;18.58;8.85;;;;;;;;;;5071680;28;20048;-73
2022/03/01 04:30:59;;;;;;;20.05;9.43;;;;;;;;;;5054985;28;20055;-74
2022/03/01 04:33:25;;;;;;;18.92;9.13;;;;;;;;;;5054885;28;20036;-74
2022/03/01 04:35:51;;;;;;;24.90;11.10;;;;;;;;;;5071705;28;20102;-75
2022/03/01 04:38:17;;;;;;;21.30;9.88;;;;;;;;;;5071905;28;20503;-74
2022/03/01 04:40:43;;;;;;;22.20;9.55;;;;;;;;;;5054848;28;20044;-75
2022/03/01 04:43:09;;;;;;;24.25;11.02;;;;;;;;;;5054810;28;20066;-74
2022/03/01 04:45:35;;;;;;;20.45;10.18;;;;;;;;;;5071811;28;20044;-75
2022/03/01 04:48:01;;;;;;;26.92;11.23;;;;;;;;;;5054717;28;20438;-74
2022/03/01 04:50:27;;;;;;;23.13;11.20;;;;;;;;;;5055041;28;20044;-73
2022/03/01 04:52:53;;;;;;;23.42;11.00;;;;;;;;;;5054649;28;20040;-73
2022/03/01 04:55:19;;;;;;;21.67;10.43;;;;;;;;;;5054784;28;20381;-73
2022/03/01 04:57:45;;;;;;;22.38;10.05;;;;;;;;;;5054690;28;20039;-76
2022/03/01 05:00:13;;;;;;;22.27;10.18;;;;;;;;;;5054966;28;20393;-74
2022/03/01 05:02:40;;;;;;;20.42;11.85;;;;;;;;;;5054671;28;20049;-73
2022/03/01 05:05:10;;;;;;;20.83;10.00;;;;;;;;;;5054847;28;20037;-74
2022/03/01 05:07:36;;;;;;;24.85;11.07;;;;;;;;;;5054584;28;20116;-73
2022/03/01 05:10:02;;;;;;;21.08;9.88;;;;;;;;;;5053614;28;20055;-73
2022/03/01 05:12:28;;;;;;;26.02;10.57;;;;;;;;;;5054152;28;20052;-73
2022/03/01 05:14:54;;;;;;;23.17;11.85;;;;;;;;;;5054471;28;20392;-73
2022/03/01 05:17:20;;;;;;;23.85;10.88;;;;;;;;;;5070764;28;20497;-75
2022/03/01 05:19:46;;;;;;;21.48;10.40;;;;;;;;;;5071226;28;20462;-75
2022/03/01 05:22:12;;;;;;;24.70;10.45;;;;;;;;;;5054055;28;20142;-73
2022/03/01 05:24:38;;;;;;;27.90;12.02;;;;;;;;;;5054280;28;20047;-75
2022/03/01 05:27:04;;;;;;;22.02;10.93;;;;;;;;;;5054074;28;20040;-75
2022/03/01 05:29:30;;;;;;;22.65;10.88;;;;;;;;;;5070661;28;20062;-74
2022/03/01 05:31:56;;;;;;;23.15;10.52;;;;;;;;;;5070665;28;20044;-76
2022/03/01 05:34:22;;;;;;;22.35;10.05;;;;;;;;;;5053817;28;20076;-75
2022/03/01 05:36:48;;;;;;;22.45;10.35;;;;;;;;;;5070612;28;20048;-75
2022/03/01 05:39:13;;;;;;;22.33;10.82;;;;;;;;;;5070840;28;20497;-75
2022/03/01 05:41:39;;;;;;;24.08;10.40;;;;;;;;;;5070547;28;20047;-74
2022/03/01 05:44:05;;;;;;;22.75;10.30;;;;;;;;;;5054032;28;20048;-74
2022/03/01 05:46:32;;;;;;;24.58;10.75;;;;;;;;;;5070567;28;20051;-75
2022/03/01 05:48:58;;;;;;;25.70;12.43;;;;;;;;;;5053613;28;20052;-76
2022/03/01 05:51:23;;;;;;;21.73;10.93;;;;;;;;;;5070205;28;20041;-76
2022/03/01 05:53:53;;;;;;;25.23;10.20;;;;;;;;;;5070669;28;20040;-76
2022/03/01 05:56:19;;;;;;;23.52;10.65;;;;;;;;;;5070222;28;20044;-77
2022/03/01 05:58:45;;;;;;;28.83;11.70;;;;;;;;;;5053546;28;20447;-76
2022/03/01 06:01:11;;;;;;;27.02;11.63;;;;;;;;;;5070362;28;20059;-76
2022/03/01 06:03:37;;;;;;;24.02;11.48;;;;;;;;;;5070246;28;20102;-75
2022/03/01 06:06:02;;;;;;;27.70;11.93;;;;;;;;;;5053519;28;20045;-76
2022/03/01 06:08:28;;;;;;;23.60;10.80;;;;;;;;;;5053131;28;20063;-76
2022/03/01 06:10:54;;;;;;;26.55;11.27;;;;;;;;;;5053259;28;20408;-76
2022/03/01 06:13:20;;;;;;;26.45;11.10;;;;;;;;;;5070105;28;20040;-75
2022/03/01 06:15:48;;;;;;;21.92;9.88;;;;;;;;;;5070013;28;20037;-75
2022/03/01 06:18:14;;;;;;;23.60;10.25;;;;;;;;;;5053334;28;20037;-76
2022/03/01 06:20:40;;;;;;;23.90;11.95;;;;;;;;;;5055356;28;20044;-75
2022/03/01 06:23:06;;;;;;;21.67;10.88;;;;;;;;;;5057750;28;20063;-75
2022/03/01 06:25:32;;;;;;;20.35;10.13;;;;;;;;;;5057747;28;20044;-74
2022/03/01 06:27:58;;;;;;;26.65;12.18;;;;;;;;;;5074241;28;20511;-76
2022/03/01 06:30:24;;;;;;;22.23;12.02;;;;;;;;;;5074284;28;20044;-76
2022/03/01 06:32:51;;;;;;;26.50;11.70;;;;;;;;;;5057168;28;20492;-76
2022/03/01 06:35:17;;;;;;;23.60;12.55;;;;;;;;;;5073883;28;20036;-76
2022/03/01 06:37:42;;;;;;;26.52;11.70;;;;;;;;;;5054628;28;20060;-75
2022/03/01 06:40:09;;;;;;;29.08;11.73;;;;;;;;;;5053409;28;20041;-77
2022/03/01 06:42:35;;;;;;;24.83;11.20;;;;;;;;;;5053803;28;20048;-77
2022/03/01 06:45:02;;;;;;;24.98;12.23;;;;;;;;;;5070096;28;20314;-76
2022/03/01 06:47:28;;;;;;;24.95;11.55;;;;;;;;;;5070641;28;20055;-77
2022/03/01 06:49:54;;;;;;;24.75;10.98;;;;;;;;;;5070447;28;20048;-77
2022/03/01 06:52:20;;;;;;;23.55;12.02;;;;;;;;;;5055565;28;20421;-76
2022/03/01 06:54:46;;;;;;;23.40;11.77;;;;;;;;;;5069455;28;20040;-76
2022/03/01 06:57:12;;;;;;;24.92;11.80;;;;;;;;;;5053614;28;20033;-77
2022/03/01 06:59:38;;;;;;;22.95;11.73;;;;;;;;;;5053588;28;20071;-76
2022/03/01 07:02:04;;;;;;;25.13;11.60;;;;;;;;;;5069986;28;20129;-77
2022/03/01 07:04:30;;;;;;;27.70;12.48;;;;;;;;;;5053234;28;20044;-76
2022/03/01 07:06:56;;;;;;;24.67;11.32;;;;;;;;;;5069909;28;20404;-77
2022/03/01 07:09:22;;;;;;;26.33;11.70;;;;;;;;;;5069605;28;20106;-77
2022/03/01 07:11:48;;;;;;;26.85;13.10;;;;;;;;;;5052849;28;20044;-77
2022/03/01 07:14:14;;;;;;;23.00;11.82;;;;;;;;;;5053096;28;20043;-76
2022/03/01 07:16:40;;;;;;;23.38;10.90;;;;;;;;;;5069525;28;20048;-76
2022/03/01 07:19:06;;;;;;;24.83;11.63;;;;;;;;;;5069153;28;20037;-76
2022/03/01 07:21:32;;;;;;;23.67;11.82;;;;;;;;;;5069544;28;20098;-76
2022/03/01 07:23:58;;;;;;;27.48;12.63;;;;;;;;;;5052868;28;20050;-75
2022/03/01 07:26:24;;;;;;;21.00;11.63;;;;;;;;;;5053198;28;20037;-74
2022/03/01 07:28:50;;;;;;;28.88;13.00;;;;;;;;;;5052685;28;20048;-75
2022/03/01 07:31:17;;;;;;;26.13;12.77;;;;;;;;;;5068370;28;20102;-75
2022/03/01 07:33:43;;;;;;;27.98;12.05;;;;;;;;;;5069239;28;20066;-77
2022/03/01 07:36:09;;;;;;;27.63;12.70;;;;;;;;;;5052975;28;20080;-77
2022/03/01 07:38:35;;;;;;;25.50;11.60;;;;;;;;;;5052597;28;20566;-76
2022/03/01 07:41:01;;;;;;;27.60;12.88;;;;;;;;;;5052597;28;20045;-75
2022/03/01 07:43:27;;;;;;;25.10;11.93;;;;;;;;;;5068608;28;20072;-76
2022/03/01 07:45:53;;;;;;;27.75;12.85;;;;;;;;;;5069177;28;20036;-77
2022/03/01 07:48:19;;;;;;;26.38;12.15;;;;;;;;;;5053588;28;20571;-75
2022/03/01 07:50:45;;;;;;;33.45;12.63;;;;;;;;;;5073003;28;20384;-76
2022/03/01 07:53:11;;;;;;;25.70;12.65;;;;;;;;;;5057000;28;20036;-75
2022/03/01 07:55:37;;;;;;;26.17;13.05;;;;;;;;;;5055945;28;20043;-76
2022/03/01 07:58:03;;;;;;;24.88;13.00;;;;;;;;;;5072678;28;20040;-75
2022/03/01 08:00:29;;;;;;;23.65;11.77;;;;;;;;;;5055696;28;20047;-75
2022/03/01 08:02:55;;;;;;;28.95;13.15;;;;;;;;;;5072486;28;20040;-75
2022/03/01 08:05:22;;;;;;;25.85;11.95;;;;;;;;;;5072282;28;20044;-74
2022/03/01 08:07:48;;;;;;;31.15;12.98;;;;;;;;;;5071925;28;20193;-75
2022/03/01 08:10:14;;;;;;;28.58;13.32;;;;;;;;;;5055448;28;20063;-74
2022/03/01 08:12:40;;;;;;;26.38;12.43;;;;;;;;;;5071940;28;20048;-73
2022/03/01 08:15:06;;;;;;;27.85;13.35;;;;;;;;;;5055561;28;20083;-74
2022/03/01 08:17:32;;;;;;;24.02;11.63;;;;;;;;;;5071971;28;20032;-73
2022/03/01 08:19:58;;;;;;;21.52;11.52;;;;;;;;;;5071880;28;20098;-73
2022/03/01 08:22:24;;;;;;;25.25;11.15;;;;;;;;;;5055156;28;20484;-73
2022/03/01 08:24:50;;;;;;;28.08;12.57;;;;;;;;;;5071695;28;20091;-77
2022/03/01 08:27:17;;;;;;;28.15;12.07;;;;;;;;;;5055165;28;20439;-72
2022/03/01 08:29:43;;;;;;;28.73;12.60;;;;;;;;;;5071602;28;20047;-73
2022/03/01 08:32:08;;;;;;;23.67;10.82;;;;;;;;;;5055195;28;20501;-75
2022/03/01 08:34:34;;;;;;;25.25;12.18;;;;;;;;;;5071902;28;20071;-74
2022/03/01 08:37:00;;;;;;;25.92;10.95;;;;;;;;;;5071839;28;20040;-74
2022/03/01 08:39:26;;;;;;;25.40;11.40;;;;;;;;;;5054980;28;20123;-74
2022/03/01 08:41:54;;;;;;;26.40;11.27;;;;;;;;;;5071377;28;20622;-75
2022/03/01 08:44:20;;;;;;;24.50;11.60;;;;;;;;;;5053890;28;20063;-77
2022/03/01 08:46:46;;;;;;;21.58;11.13;;;;;;;;;;5054634;28;20051;-74
2022/03/01 08:49:12;;;;;;;21.10;11.00;;;;;;;;;;5071326;28;20407;-75
2022/03/01 08:51:38;;;;;;;30.58;12.00;;;;;;;;;;5071476;28;20044;-76
2022/03/01 08:54:04;;;;;;;22.85;11.52;;;;;;;;;;5054499;28;20040;-75
2022/03/01 08:56:30;;;;;;;23.42;11.65;;;;;;;;;;5071199;28;20040;-75
2022/03/01 08:58:56;;;;;;;22.95;11.80;;;;;;;;;;5054509;28;20131;-74
2022/03/01 09:01:22;;;;;;;21.15;12.38;;;;;;;;;;5054495;28;20071;-76
2022/03/01 09:03:48;;;;;;;24.38;11.55;;;;;;;;;;5071385;28;20087;-74
2022/03/01 09:06:14;;;;;;;24.42;12.13;;;;;;;;;;5054330;28;20047;-75
2022/03/01 09:08:40;;;;;;;23.23;12.10;;;;;;;;;;5070764;28;20082;-74
2022/03/01 09:11:07;;;;;;;22.80;12.35;;;;;;;;;;5070987;28;20589;-74
2022/03/01 09:13:33;;;;;;;25.67;11.40;;;;;;;;;;5071156;28;20543;-72
2022/03/01 09:15:59;;;;;;;24.95;12.63;;;;;;;;;;5070785;28;20523;-76
2022/03/01 09:18:25;;;;;;;23.58;11.77;;;;;;;;;;5054455;28;20036;-75
2022/03/01 09:20:52;;;;;;;19.73;11.38;;;;;;;;;;5054366;28;20036;-76
2022/03/01 09:23:18;;;;;;;22.30;11.57;;;;;;;;;;5053973;28;20067;-75
2022/03/01 09:25:44;;;;;;;24.90;12.02;;;;;;;;;;5070876;28;20041;-76
2022/03/01 09:28:10;;;;;;;22.83;10.63;;;;;;;;;;5054112;28;20523;-75
2022/03/01 09:30:36;;;;;;;22.77;10.18;;;;;;;;;;5070506;28;20044;-75
2022/03/01 09:33:02;;;;;;;21.98;11.10;;;;;;;;;;5053788;28;20040;-75
2022/03/01 09:35:28;;;;;;;20.90;12.25;;;;;;;;;;5053763;28;20119;-74
2022/03/01 09:37:54;;;;;;;26.05;11.48;;;;;;;;;;5053793;28;20576;-74
2022/03/01 09:40:20;;;;;;;22.48;11.65;;;;;;;;;;5070398;28;20044;-74
2022/03/01 09:42:46;;;;;;;23.17;11.60;;;;;;;;;;5054096;28;20512;-75
2022/03/01 09:45:13;;;;;;;22.70;11.52;;;;;;;;;;5053969;28;20135;-75
2022/03/01 09:47:39;;;;;;;21.67;11.50;;;;;;;;;;5070249;28;20432;-73
2022/03/01 09:50:05;;;;;;;22.95;11.77;;;;;;;;;;5070324;28;20044;-75
2022/03/01 09:52:32;;;;;;;23.13;12.50;;;;;;;;;;5053534;28;20127;-76
2022/03/01 09:54:58;;;;;;;25.90;11.93;;;;;;;;;;5053493;28;20047;-74
2022/03/01 09:57:24;;;;;;;22.35;10.52;;;;;;;;;;5053524;28;20044;-74
2022/03/01 09:59:50;;;;;;;23.08;10.45;;;;;;;;;;5070167;28;20036;-74
2022/03/01 10:02:16;;;;;;;23.58;11.30;;;;;;;;;;5053473;28;20493;-74
2022/03/01 10:04:55;;;;;;;21.58;11.10;;;;;;;;;;5053717;28;20498;-73
2022/03/01 10:07:22;;;;;;;21.17;10.43;;;;;;;;;;5070222;28;20043;-75
2022/03/01 10:09:49;;;;;;;21.27;11.23;;;;;;;;;;5070161;28;20048;-73
2022/03/01 10:12:21;;;;;;;23.55;11.23;;;;;;;;;;5053293;28;20042;-74
2022/03/01 10:14:54;;;;;;;18.75;10.07;;;;;;;;;;5070247;28;20037;-73
2022/03/01 10:17:20;;;;;;;21.70;10.43;;;;;;;;;;5070175;28;20036;-73
2022/03/01 10:19:46;;;;;;;24.52;10.95;;;;;;;;;;5070308;28;20043;-74
2022/03/01 10:22:12;;;;;;;20.50;10.43;;;;;;;;;;5053290;28;20048;-76
2022/03/01 10:24:46;;;;;;;20.65;10.88;;;;;;;;;;5070385;28;20120;-74
2022/03/01 10:27:12;;;;;;;19.83;10.10;;;;;;;;;;5070304;28;20143;-75
2022/03/01 10:29:43;;;;;;;20.80;10.77;;;;;;;;;;5053189;28;20117;-74
2022/03/01 10:32:12;;;;;;;21.83;10.55;;;;;;;;;;5070130;28;20433;-73
2022/03/01 10:34:38;;;;;;;19.98;10.88;;;;;;;;;;5070265;28;20041;-76
2022/03/01 10:37:04;;;;;;;20.95;10.75;;;;;;;;;;5069945;28;20040;-74
2022/03/01 10:39:31;;;;;;;24.52;10.45;;;;;;;;;;5053556;28;20052;-76
2022/03/01 10:41:57;;;;;;;19.35;9.57;;;;;;;;;;5053037;28;20131;-75
2022/03/01 10:44:25;;;;;;;22.92;10.25;;;;;;;;;;5069719;28;20657;-75
2022/03/01 10:46:53;;;;;;;20.77;10.13;;;;;;;;;;5069815;28;20045;-74
2022/03/01 10:49:22;;;;;;;20.02;10.55;;;;;;;;;;5053396;28;20488;-73
2022/03/01 10:51:48;;;;;;;18.73;9.57;;;;;;;;;;5052917;28;20037;-75
2022/03/01 10:54:24;;;;;;;22.83;10.75;;;;;;;;;;5052908;28;20044;-75
2022/03/01 10:56:51;;;;;;;21.35;10.35;;;;;;;;;;5052968;28;20047;-74
2022/03/01 10:59:17;;;;;;;21.02;10.50;;;;;;;;;;5052914;28;20090;-75
2022/03/01 11:01:43;;;;;;;20.48;10.63;;;;;;;;;;5069584;28;20500;-75
2022/03/01 11:04:09;;;;;;;17.00;9.95;;;;;;;;;;5069849;28;20048;-75
2022/03/01 11:06:36;;;;;;;16.23;9.88;;;;;;;;;;5069946;28;20040;-75
2022/03/01 11:09:02;;;;;;;19.05;9.95;;;;;;;;;;5073142;28;20106;-75
2022/03/01 11:11:30;;;;;;;20.02;9.20;;;;;;;;;;5073356;28;20082;-76
2022/03/01 11:13:57;;;;;;;18.50;10.50;;;;;;;;;;5073099;28;20480;-76
2022/03/01 11:16:35;;;;;;;18.75;9.82;;;;;;;;;;5056449;28;20044;-77
2022/03/01 11:19:13;;;;;;;16.00;8.55;;;;;;;;;;5073167;28;20043;-75
2022/03/01 11:21:46;;;;;;;17.40;9.18;;;;;;;;;;5056519;28;20048;-75
2022/03/01 11:24:14;;;;;;;18.27;9.65;;;;;;;;;;5056389;28;20083;-74
2022/03/01 11:26:40;;;;;;;18.08;9.75;;;;;;;;;;5056705;28;20059;-75
2022/03/01 11:29:14;;;;;;;20.55;10.07;;;;;;;;;;5072959;28;20036;-76
2022/03/01 11:31:41;;;;;;;15.80;9.98;;;;;;;;;;5051223;28;20036;-76
2022/03/01 11:34:08;;;;;;;15.80;9.30;;;;;;;;;;5073031;28;20033;-75
2022/03/01 11:36:35;;;;;;;16.08;9.27;;;;;;;;;;5053314;28;20509;-75
2022/03/01 11:39:08;;;;;;;17.52;9.73;;;;;;;;;;5055960;28;20044;-75
2022/03/01 11:41:45;;;;;;;17.98;9.85;;;;;;;;;;5052993;28;20443;-75
2022/03/01 11:44:12;;;;;;;18.98;9.68;;;;;;;;;;5055489;28;20032;-76
2022/03/01 11:46:43;;;;;;;18.70;9.95;;;;;;;;;;5055900;28;20044;-75
2022/03/01 11:49:11;;;;;;;18.00;10.05;;;;;;;;;;5072101;28;20040;-76
2022/03/01 11:51:39;;;;;;;19.17;10.50;;;;;;;;;;5055564;28;20125;-75
2022/03/01 11:54:06;;;;;;;19.35;9.80;;;;;;;;;;5055745;28;20158;-77
2022/03/01 11:56:34;;;;;;;18.63;10.15;;;;;;;;;;5055279;28;20040;-76
2022/03/01 11:59:04;;;;;;;18.40;10.70;;;;;;;;;;5055214;28;20036;-74
2022/03/01 12:01:32;;;;;;;16.85;10.50;;;;;;;;;;5071890;28;20044;-76
2022/03/01 12:04:00;;;;;;;18.75;10.27;;;;;;;;;;5055195;28;20032;-76
2022/03/01 12:06:28;;;;;;;17.88;9.57;;;;;;;;;;5072151;28;20047;-75
2022/03/01 12:08:58;;;;;;;19.08;9.50;;;;;;;;;;5068789;28;20063;-77
2022/03/01 12:11:39;;;;;;;14.90;9.32;;;;;;;;;;5071727;28;20110;-76
2022/03/01 12:14:09;;;;;;;17.08;10.38;;;;;;;;;;5070432;28;20060;-76
2022/03/01 12:16:36;;;;;;;18.25;9.90;;;;;;;;;;5069237;28;20078;-75
2022/03/01 12:19:13;;;;;;;20.05;10.00;;;;;;;;;;5071845;28;20040;-75
2022/03/01 12:21:40;;;;;;;17.02;9.93;;;;;;;;;;5052863;28;20140;-75
2022/03/01 12:24:06;;;;;;;19.40;10.93;;;;;;;;;;5055021;28;20127;-76
2022/03/01 12:26:41;;;;;;;18.13;10.68;;;;;;;;;;5071307;28;20036;-76
2022/03/01 12:29:07;;;;;;;16.95;10.25;;;;;;;;;;5071446;28;20044;-77
2022/03/01 12:31:33;;;;;;;21.80;10.43;;;;;;;;;;5054708;28;20036;-75
2022/03/01 12:34:00;;;;;;;21.27;10.80;;;;;;;;;;5054916;28;20044;-76
2022/03/01 12:36:27;;;;;;;18.83;10.05;;;;;;;;;;5054902;28;20032;-75
2022/03/01 12:39:04;;;;;;;18.13;9.98;;;;;;;;;;5054921;28;20043;-75
2022/03/01 12:41:30;;;;;;;17.15;10.43;;;;;;;;;;5054303;28;20484;-75
2022/03/01 12:44:00;;;;;;;17.63;9.95;;;;;;;;;;5054467;28;20110;-76
2022/03/01 12:46:27;;;;;;;19.70;10.57;;;;;;;;;;5071210;28;20036;-76
2022/03/01 12:48:54;;;;;;;18.50;10.52;;;;;;;;;;5071024;28;20044;-75
2022/03/01 12:51:22;;;;;;;20.25;10.15;;;;;;;;;;5070970;28;20080;-76
2022/03/01 12:53:55;;;;;;;19.23;9.93;;;;;;;;;;5070767;28;20036;-75
2022/03/01 12:56:22;;;;;;;22.23;11.13;;;;;;;;;;5052346;28;20090;-76
2022/03/01 12:58:50;;;;;;;18.35;9.77;;;;;;;;;;5054076;28;20090;-75
2022/03/01 13:01:16;;;;;;;22.88;10.88;;;;;;;;;;5068147;28;20040;-76
2022/03/01 13:03:43;;;;;;;20.08;10.05;;;;;;;;;;5054315;28;20043;-75
2022/03/01 13:06:14;;;;;;;22.33;11.43;;;;;;;;;;5070802;28;20044;-76
2022/03/01 13:08:41;;;;;;;20.08;10.60;;;;;;;;;;5068520;28;20157;-75
2022/03/01 13:11:08;;;;;;;19.23;10.88;;;;;;;;;;5070527;28;20051;-75
2022/03/01 13:13:45;;;;;;;21.65;10.23;;;;;;;;;;5070656;28;20037;-75
2022/03/01 13:16:11;;;;;;;20.85;10.02;;;;;;;;;;5071303;28;20488;-74
2022/03/01 13:18:37;;;;;;;18.27;10.18;;;;;;;;;;5070637;28;20052;-75
2022/03/01 13:21:04;;;;;;;22.92;9.95;;;;;;;;;;5054186;28;20044;-75
2022/03/01 13:23:30;;;;;;;18.33;10.00;;;;;;;;;;5053936;28;20178;-74
2022/03/01 13:25:57;;;;;;;20.23;10.20;;;;;;;;;;5054336;28;20042;-75
2022/03/01 13:28:38;;;;;;;18.25;10.05;;;;;;;;;;5054066;28;20119;-75
2022/03/01 13:31:05;;;;;;;20.47;10.17;;;;;;;;;;5070235;28;20496;-75
2022/03/01 13:33:31;;;;;;;20.13;9.90;;;;;;;;;;5070882;28;20083;-76
2022/03/01 13:35:58;;;;;;;21.30;10.40;;;;;;;;;;5053736;28;20032;-74
2022/03/01 13:38:25;;;;;;;19.88;10.43;;;;;;;;;;5070679;28;20037;-76
2022/03/01 13:40:51;;;;;;;18.90;10.18;;;;;;;;;;5054052;28;20074;-75
2022/03/01 13:43:24;;;;;;;21.25;10.48;;;;;;;;;;5053747;28;20094;-75
2022/03/01 13:45:55;;;;;;;20.60;10.50;;;;;;;;;;5054033;28;20500;-75
2022/03/01 13:48:20;;;;;;;21.83;11.25;;;;;;;;;;5070805;28;20090;-75
2022/03/01 13:50:48;;;;;;;19.40;10.35;;;;;;;;;;5070282;28;20071;-76
2022/03/01 13:53:16;;;;;;;22.85;11.65;;;;;;;;;;5053474;28;20047;-77
2022/03/01 13:55:43;;;;;;;16.00;7.63;;;;;;;;;;5070329;28;20040;-76
2022/03/01 13:58:15;;;;;;;20.75;8.73;;;;;;;;;;5070255;28;20040;-76
2022/03/01 14:00:42;;;;;;;23.17;12.18;;;;;;;;;;5070358;28;20550;-75
2022/03/01 14:03:19;;;;;;;20.23;10.90;;;;;;;;;;5070460;28;20041;-74
2022/03/01 14:05:54;;;;;;;22.25;11.65;;;;;;;;;;5070324;28;20041;-75
2022/03/01 14:08:20;;;;;;;24.63;10.98;;;;;;;;;;5053045;28;20078;-74
2022/03/01 14:10:57;;;;;;;23.35;10.20;;;;;;;;;;5070298;28;20496;-75
2022/03/01 14:13:27;;;;;;;15.45;8.20;;;;;;;;;;5070336;28;20051;-75
2022/03/01 14:16:03;;;;;;;22.23;10.60;;;;;;;;;;5053427;28;20090;-75
2022/03/01 14:18:49;;;;;;;19.02;10.57;;;;;;;;;;5053274;28;20048;-76